Time,TemperatureF,DewpointF,PressureIn,WindDirection,WindDirectionDegrees,WindSpeedMPH,WindSpeedGustMPH,Humidity,HourlyPrecipIn,Conditions,Clouds,dailyrainin,SolarRadiationWatts/m^2,SoftwareType,DateUTC
2013-02-04 00:01:00,53.0,26.0,-100.00,NW,323,17.0,24.0,35,0.00,,,0.00,0.000000,,2013-02-04 08:01:00,
2013-02-04 00:11:00,53.0,26.0,-100.00,NW,323,17.0,24.0,35,0.00,,,0.00,0.000000,,2013-02-04 08:11:00,
2013-02-04 00:21:00,53.0,26.0,-100.00,NW,323,17.0,24.0,35,0.00,,,0.00,0.000000,,2013-02-04 08:21:00,
2013-02-04 00:52:00,54.0,20.0,-100.00,SE,132,31.0,37.0,26,0.00,,,0.00,0.000000,,2013-02-04 08:52:00,
2013-02-04 01:02:00,54.0,20.0,-100.00,SE,132,31.0,37.0,26,0.00,,,0.00,0.000000,,2013-02-04 09:02:00,
2013-02-04 01:11:00,54.0,20.0,-100.00,SE,132,31.0,37.0,26,0.00,,,0.00,0.000000,,2013-02-04 09:11:00,
2013-02-04 01:21:00,54.0,20.0,-100.00,SE,132,31.0,37.0,26,0.00,,,0.00,0.000000,,2013-02-04 09:21:00,
2013-02-04 01:52:00,52.0,19.0,-100.00,ESE,120,29.0,41.0,27,-99.99,,,0.00,0.000000,,2013-02-04 09:52:00,
2013-02-04 02:01:00,52.0,19.0,-100.00,ESE,120,29.0,41.0,27,-99.99,,,0.00,0.000000,,2013-02-04 10:01:00,
2013-02-04 02:11:00,52.0,19.0,-100.00,ESE,120,29.0,41.0,27,-99.99,,,0.00,0.000000,,2013-02-04 10:11:00,
2013-02-04 02:21:00,52.0,19.0,-100.00,ESE,120,29.0,41.0,27,-99.99,,,0.00,0.000000,,2013-02-04 10:21:00,
2013-02-04 02:52:00,55.0,20.0,-100.00,SSE,149,24.0,33.0,25,0.00,,,0.00,0.000000,,2013-02-04 10:52:00,
2013-02-04 03:01:00,55.0,20.0,-100.00,SSE,149,24.0,33.0,25,0.00,,,0.00,0.000000,,2013-02-04 11:01:00,
2013-02-04 03:11:00,55.0,20.0,-100.00,SSE,149,24.0,33.0,25,0.00,,,0.00,0.000000,,2013-02-04 11:11:00,
2013-02-04 03:22:00,55.0,20.0,-100.00,SSE,149,24.0,33.0,25,0.00,,,0.00,0.000000,,2013-02-04 11:22:00,
2013-02-04 03:52:00,52.0,19.0,-100.00,NW,325,19.0,33.0,27,0.00,,,0.00,0.000000,,2013-02-04 11:52:00,
2013-02-04 04:02:00,52.0,19.0,-100.00,NW,325,19.0,33.0,27,0.00,,,0.00,0.000000,,2013-02-04 12:02:00,
2013-02-04 04:12:00,52.0,19.0,-100.00,NW,325,19.0,33.0,27,0.00,,,0.00,0.000000,,2013-02-04 12:12:00,
2013-02-04 04:21:00,52.0,19.0,-100.00,NW,325,19.0,33.0,27,0.00,,,0.00,0.000000,,2013-02-04 12:21:00,
2013-02-04 04:53:00,54.0,19.0,-100.00,WNW,282,23.0,33.0,25,0.00,,,0.00,0.000000,,2013-02-04 12:53:00,
2013-02-04 05:02:00,54.0,19.0,-100.00,WNW,282,23.0,33.0,25,0.00,,,0.00,0.000000,,2013-02-04 13:02:00,
2013-02-04 05:11:00,54.0,19.0,-100.00,WNW,282,23.0,33.0,25,0.00,,,0.00,0.000000,,2013-02-04 13:11:00,
2013-02-04 05:21:00,54.0,19.0,-100.00,WNW,282,23.0,33.0,25,0.00,,,0.00,0.000000,,2013-02-04 13:21:00,
2013-02-04 05:52:00,50.0,17.0,-100.00,East,80,4.0,26.0,27,0.00,,,0.00,0.000000,,2013-02-04 13:52:00,
2013-02-04 06:02:00,50.0,17.0,-100.00,East,80,4.0,26.0,27,0.00,,,0.00,0.000000,,2013-02-04 14:02:00,
2013-02-04 06:11:00,50.0,17.0,-100.00,East,80,4.0,26.0,27,0.00,,,0.00,0.000000,,2013-02-04 14:11:00,
2013-02-04 06:21:00,50.0,17.0,-100.00,East,80,4.0,26.0,27,0.00,,,0.00,0.000000,,2013-02-04 14:21:00,
2013-02-04 06:52:00,48.0,17.0,-100.00,NE,48,9.0,13.0,29,0.00,,,0.00,0.000000,,2013-02-04 14:52:00,
2013-02-04 07:03:00,48.0,17.0,-100.00,NE,48,9.0,13.0,29,0.00,,,0.00,0.000000,,2013-02-04 15:03:00,
2013-02-04 07:12:00,48.0,17.0,-100.00,NE,48,9.0,13.0,29,0.00,,,0.00,0.000000,,2013-02-04 15:12:00,
2013-02-04 07:23:00,48.0,17.0,-100.00,NE,48,9.0,13.0,29,0.00,,,0.00,0.000000,,2013-02-04 15:23:00,
2013-02-04 07:52:00,52.0,19.0,-100.00,NE,34,25.0,33.0,27,0.00,,,0.00,17.000000,,2013-02-04 15:52:00,
2013-02-04 08:02:00,52.0,19.0,-100.00,NE,34,25.0,33.0,27,0.00,,,0.00,17.000000,,2013-02-04 16:02:00,
2013-02-04 08:11:00,52.0,19.0,-100.00,NE,34,25.0,33.0,27,0.00,,,0.00,17.000000,,2013-02-04 16:11:00,
2013-02-04 08:21:00,52.0,19.0,-100.00,NE,34,25.0,33.0,27,0.00,,,0.00,17.000000,,2013-02-04 16:21:00,
2013-02-04 09:52:00,54.0,19.0,-100.00,NNE,26,16.0,26.0,25,-99.99,,,0.00,463.000000,,2013-02-04 17:52:00,
2013-02-04 10:03:00,54.0,19.0,-100.00,NNE,26,16.0,26.0,25,-99.99,,,0.00,463.000000,,2013-02-04 18:03:00,
2013-02-04 10:11:00,54.0,19.0,-100.00,NNE,26,16.0,26.0,25,-99.99,,,0.00,463.000000,,2013-02-04 18:11:00,
2013-02-04 10:21:00,54.0,19.0,-100.00,NNE,26,16.0,26.0,25,-99.99,,,0.00,463.000000,,2013-02-04 18:21:00,
2013-02-04 10:52:00,57.0,19.0,-100.00,NNE,23,15.0,22.0,22,0.00,,,0.00,663.000000,,2013-02-04 18:52:00,
2013-02-04 11:02:00,57.0,19.0,-100.00,NNE,23,15.0,22.0,22,0.00,,,0.00,663.000000,,2013-02-04 19:02:00,
2013-02-04 11:11:00,57.0,19.0,-100.00,NNE,23,15.0,22.0,22,0.00,,,0.00,663.000000,,2013-02-04 19:11:00,
2013-02-04 11:21:00,57.0,19.0,-100.00,NNE,23,15.0,22.0,22,0.00,,,0.00,663.000000,,2013-02-04 19:21:00,
2013-02-04 11:52:00,64.0,17.0,-100.00,NE,50,3.0,18.0,16,0.00,,,0.00,798.000000,,2013-02-04 19:52:00,
2013-02-04 12:02:00,64.0,17.0,-100.00,NE,50,3.0,18.0,16,0.00,,,0.00,798.000000,,2013-02-04 20:02:00,
2013-02-04 12:11:00,64.0,17.0,-100.00,NE,50,3.0,18.0,16,0.00,,,0.00,798.000000,,2013-02-04 20:11:00,
2013-02-04 12:21:00,64.0,17.0,-100.00,NE,50,3.0,18.0,16,0.00,,,0.00,798.000000,,2013-02-04 20:21:00,
2013-02-04 12:52:00,69.0,18.0,-100.00,South,175,5.0,11.0,14,0.00,,,0.00,855.000000,,2013-02-04 20:52:00,
2013-02-04 13:02:00,69.0,18.0,-100.00,South,175,5.0,11.0,14,0.00,,,0.00,855.000000,,2013-02-04 21:02:00,
2013-02-04 13:52:00,68.0,20.0,-100.00,South,181,6.0,13.0,16,0.00,,,-99.99,831.000000,,2013-02-04 21:52:00,
2013-02-04 14:02:00,68.0,20.0,-100.00,South,181,6.0,13.0,16,0.00,,,-99.99,831.000000,,2013-02-04 22:02:00,
2013-02-04 14:12:00,68.0,20.0,-100.00,South,181,6.0,13.0,16,0.00,,,-99.99,831.000000,,2013-02-04 22:12:00,
2013-02-04 14:21:00,68.0,20.0,-100.00,South,181,6.0,13.0,16,0.00,,,-99.99,831.000000,,2013-02-04 22:21:00,
2013-02-04 14:52:00,68.0,17.0,-100.00,SSW,195,4.0,13.0,14,0.00,,,0.00,726.000000,,2013-02-04 22:52:00,
2013-02-04 15:01:00,68.0,17.0,-100.00,SSW,195,4.0,13.0,14,0.00,,,0.00,726.000000,,2013-02-04 23:01:00,
2013-02-04 15:11:00,68.0,17.0,-100.00,SSW,195,4.0,13.0,14,0.00,,,0.00,726.000000,,2013-02-04 23:11:00,
2013-02-04 15:21:00,68.0,17.0,-100.00,SSW,195,4.0,13.0,14,0.00,,,0.00,726.000000,,2013-02-04 23:21:00,
2013-02-04 15:52:00,66.0,17.0,-100.00,South,180,8.0,13.0,15,0.00,,,0.00,550.000000,,2013-02-04 23:52:00,
2013-02-04 16:01:00,66.0,17.0,-100.00,South,180,8.0,13.0,15,0.00,,,0.00,550.000000,,2013-02-05 00:01:00,
2013-02-04 16:11:00,66.0,17.0,-100.00,South,180,8.0,13.0,15,0.00,,,0.00,550.000000,,2013-02-05 00:11:00,
2013-02-04 16:21:00,66.0,17.0,-100.00,South,180,8.0,13.0,15,0.00,,,0.00,550.000000,,2013-02-05 00:21:00,
2013-02-04 16:52:00,65.0,18.0,-100.00,SSW,194,7.0,11.0,16,0.00,,,0.00,324.000000,,2013-02-05 00:52:00,
2013-02-04 17:01:00,65.0,18.0,-100.00,SSW,194,7.0,11.0,16,0.00,,,0.00,324.000000,,2013-02-05 01:01:00,
2013-02-04 17:11:00,65.0,18.0,-100.00,SSW,194,7.0,11.0,16,0.00,,,0.00,324.000000,,2013-02-05 01:11:00,
2013-02-04 17:21:00,65.0,18.0,-100.00,SSW,194,7.0,11.0,16,0.00,,,0.00,324.000000,,2013-02-05 01:21:00,
2013-02-04 17:52:00,57.0,16.0,-100.00,SSW,195,4.0,9.0,20,0.00,,,0.00,23.000000,,2013-02-05 01:52:00,
2013-02-04 18:01:00,57.0,16.0,-100.00,SSW,195,4.0,9.0,20,0.00,,,0.00,23.000000,,2013-02-05 02:01:00,
2013-02-04 18:11:00,57.0,16.0,-100.00,SSW,195,4.0,9.0,20,0.00,,,0.00,23.000000,,2013-02-05 02:11:00,
2013-02-04 18:21:00,57.0,16.0,-100.00,SSW,195,4.0,9.0,20,0.00,,,0.00,23.000000,,2013-02-05 02:21:00,
2013-02-04 18:52:00,56.0,17.0,-100.00,South,176,4.0,7.0,21,0.00,,,0.00,0.000000,,2013-02-05 02:52:00,
2013-02-04 19:01:00,56.0,17.0,-100.00,South,176,4.0,7.0,21,0.00,,,0.00,0.000000,,2013-02-05 03:01:00,
2013-02-04 19:11:00,56.0,17.0,-100.00,South,176,4.0,7.0,21,0.00,,,0.00,0.000000,,2013-02-05 03:11:00,
2013-02-04 19:21:00,56.0,17.0,-100.00,South,176,4.0,7.0,21,0.00,,,0.00,0.000000,,2013-02-05 03:21:00,
2013-02-04 19:52:00,55.0,18.0,-100.00,South,176,0.0,6.0,23,0.00,,,0.00,0.000000,,2013-02-05 03:52:00,
2013-02-04 20:01:00,55.0,18.0,-100.00,South,176,0.0,6.0,23,0.00,,,0.00,0.000000,,2013-02-05 04:01:00,
2013-02-04 20:11:00,55.0,18.0,-100.00,South,176,0.0,6.0,23,0.00,,,0.00,0.000000,,2013-02-05 04:11:00,
2013-02-04 20:21:00,55.0,18.0,-100.00,South,176,0.0,6.0,23,0.00,,,0.00,0.000000,,2013-02-05 04:21:00,
2013-02-04 20:52:00,54.0,17.0,-100.00,SSW,204,0.0,5.0,23,0.00,,,0.00,0.000000,,2013-02-05 04:52:00,
2013-02-04 21:02:00,54.0,17.0,-100.00,SSW,204,0.0,5.0,23,0.00,,,0.00,0.000000,,2013-02-05 05:02:00,
2013-02-04 21:11:00,54.0,17.0,-100.00,SSW,204,0.0,5.0,23,0.00,,,0.00,0.000000,,2013-02-05 05:11:00,
2013-02-04 21:21:00,54.0,17.0,-100.00,SSW,204,0.0,5.0,23,0.00,,,0.00,0.000000,,2013-02-05 05:21:00,
2013-02-04 21:52:00,56.0,17.0,-100.00,South,170,3.0,5.0,21,0.00,,,0.00,0.000000,,2013-02-05 05:52:00,
2013-02-04 22:01:00,56.0,17.0,-100.00,South,170,3.0,5.0,21,0.00,,,0.00,0.000000,,2013-02-05 06:01:00,
2013-02-04 22:11:00,56.0,17.0,-100.00,South,170,3.0,5.0,21,0.00,,,0.00,0.000000,,2013-02-05 06:11:00,
2013-02-04 22:21:00,56.0,17.0,-100.00,South,170,3.0,5.0,21,0.00,,,0.00,0.000000,,2013-02-05 06:21:00,
2013-02-04 22:52:00,53.0,14.0,-100.00,South,177,0.0,5.0,21,0.00,,,0.00,0.000000,,2013-02-05 06:52:00,
2013-02-04 23:01:00,53.0,14.0,-100.00,South,177,0.0,5.0,21,0.00,,,0.00,0.000000,,2013-02-05 07:01:00,
2013-02-04 23:11:00,53.0,14.0,-100.00,South,177,0.0,5.0,21,0.00,,,0.00,0.000000,,2013-02-05 07:11:00,
2013-02-04 23:22:00,53.0,14.0,-100.00,South,177,0.0,5.0,21,0.00,,,0.00,0.000000,,2013-02-05 07:22:00,
2013-02-04 23:52:00,51.0,15.0,-100.00,WSW,240,0.0,4.0,23,0.00,,,0.00,0.000000,,2013-02-05 07:52:00,